Time;durP1;ratioP1;P1;durP2;ratioP2;P2;SDS_P1;SDS_P2;PMS_P1;PMS_P2;Temp;Humidity;BMP_temperature;BMP_pressure;BME280_temperature;BME280_humidity;BME280_pressure;Samples;Min_cycle;Max_cycle;Signal;HPM_P1;HPM_P2
2024/04/13 00:00:30;;;;;;;3.50;2.40;;;;;;;13.02;100.00;100240.23;108514;1254;69728;-58
2024/04/13 00:02:59;;;;;;;3.40;2.10;;;;;;;13.01;100.00;100236.75;108447;1251;72349;-57
2024/04/13 00:05:27;;;;;;;4.00;2.00;;;;;;;13.00;100.00;100231.71;108484;1251;60801;-58
2024/04/13 00:07:55;;;;;;;3.90;2.60;;;;;;;13.00;100.00;100232.92;108518;1251;60286;-57
2024/04/13 00:10:25;;;;;;;2.70;2.00;;;;;;;13.03;100.00;100234.03;108479;1252;73440;-58
2024/04/13 00:12:53;;;;;;;2.50;2.00;;;;;;;13.05;100.00;100228.14;108273;1254;69511;-57
2024/04/13 00:15:20;;;;;;;4.70;2.00;;;;;;;13.08;100.00;100231.40;108495;1251;73205;-58
2024/04/13 00:17:48;;;;;;;6.20;2.40;;;;;;;13.07;100.00;100234.42;108452;1251;62373;-58
2024/04/13 00:20:15;;;;;;;2.50;2.10;;;;;;;13.04;100.00;100228.21;108437;1254;60314;-57
2024/04/13 00:22:44;;;;;;;7.30;2.00;;;;;;;13.03;100.00;100223.47;108438;1251;73382;-57
2024/04/13 00:25:13;;;;;;;5.10;2.10;;;;;;;13.02;100.00;100222.33;108373;1251;69122;-57
2024/04/13 00:27:41;;;;;;;3.90;2.10;;;;;;;12.97;100.00;100220.95;108272;1251;72495;-58
2024/04/13 00:30:09;;;;;;;4.00;1.90;;;;;;;12.93;100.00;100222.91;108438;1254;61396;-57
2024/04/13 00:32:37;;;;;;;3.50;1.70;;;;;;;12.91;100.00;100220.35;108437;1251;59960;-57
2024/04/13 00:35:05;;;;;;;;;;;;;;;12.93;100.00;100220.61;108451;1251;74422;-57
2024/04/13 00:37:33;;;;;;;4.00;1.80;;;;;;;12.94;100.00;100220.35;108475;1251;71060;-58
2024/04/13 00:40:00;;;;;;;3.20;1.80;;;;;;;12.93;100.00;100219.34;108444;1251;72929;-58
2024/04/13 00:42:28;;;;;;;3.40;1.50;;;;;;;12.93;100.00;100216.18;108406;1254;60761;-59
2024/04/13 00:45:03;;;;;;;5.00;1.80;;;;;;;12.95;100.00;100208.52;108416;1251;60862;-58
2024/04/13 00:47:37;;;;;;;4.50;1.70;;;;;;;12.96;100.00;100209.04;108467;1251;74848;-58
2024/04/13 00:50:11;;;;;;;5.70;1.70;;;;;;;12.95;100.00;100209.21;108500;1252;69843;-57
2024/04/13 00:52:41;;;;;;;2.30;2.10;;;;;;;13.01;100.00;100208.81;108385;1251;73371;-57
2024/04/13 00:55:09;;;;;;;2.40;1.90;;;;;;;13.01;100.00;100206.67;108364;1254;61794;-57
2024/04/13 00:57:36;;;;;;;4.90;1.90;;;;;;;12.99;100.00;100204.65;108360;1251;60075;-57
2024/04/13 01:00:05;;;;;;;2.30;2.00;;;;;;;13.02;100.00;100205.77;108404;1253;75818;-57
2024/04/13 01:02:33;;;;;;;3.30;1.80;;;;;;;13.04;100.00;100203.23;108448;1254;70103;-58
2024/04/13 01:05:00;;;;;;;3.70;2.40;;;;;;;13.06;100.00;100202.25;108435;1251;72365;-58
2024/04/13 01:07:28;;;;;;;7.10;2.10;;;;;;;13.10;100.00;100196.77;108250;1251;63503;-57
2024/04/13 01:09:55;;;;;;;3.60;1.70;;;;;;;13.12;100.00;100200.23;108165;1251;59722;-57
2024/04/13 01:12:23;;;;;;;6.80;2.00;;;;;;;13.12;100.00;100194.59;108516;1251;75586;-58
2024/04/13 01:14:51;;;;;;;2.20;1.90;;;;;;;13.15;100.00;100194.43;108384;1251;69230;-58
2024/04/13 01:17:19;;;;;;;6.50;2.00;;;;;;;13.21;100.00;100190.84;108400;1251;73365;-58
2024/04/13 01:19:47;;;;;;;2.70;1.80;;;;;;;13.20;100.00;100189.69;108467;1251;61410;-58
2024/04/13 01:22:15;;;;;;;2.30;1.80;;;;;;;13.18;100.00;100185.52;108488;1251;60333;-58
2024/04/13 01:24:42;;;;;;;5.40;2.00;;;;;;;13.20;100.00;100189.30;108441;1251;74506;-58
2024/04/13 01:27:10;;;;;;;2.00;1.70;;;;;;;13.21;100.00;100189.28;108403;1254;68270;-58
2024/04/13 01:29:38;;;;;;;1.90;1.60;;;;;;;13.19;100.00;100187.23;108348;1254;74839;-58
2024/04/13 01:32:05;;;;;;;2.50;1.90;;;;;;;13.20;100.00;100185.06;108432;1251;61802;-57
2024/04/13 01:34:33;;;;;;;4.40;2.20;;;;;;;13.21;100.00;100177.13;108440;1251;59898;-57
2024/04/13 01:37:00;;;;;;;2.60;1.90;;;;;;;13.16;100.00;100183.49;108259;1251;75330;-54
2024/04/13 01:39:28;;;;;;;3.60;1.70;;;;;;;13.12;100.00;100180.52;108452;1252;69578;-57
2024/04/13 01:41:56;;;;;;;;;;;;;;;13.09;100.00;100179.58;108276;1251;72872;-58
2024/04/13 01:44:23;;;;;;;2.00;1.30;;;;;;;13.08;100.00;100180.86;108529;1251;62411;-58
2024/04/13 01:46:51;;;;;;;2.40;1.50;;;;;;;13.09;100.00;100178.89;108224;1253;59721;-58
2024/04/13 01:49:19;;;;;;;4.10;1.70;;;;;;;13.08;100.00;100177.00;108218;1254;74398;-57
2024/04/13 01:51:46;;;;;;;1.90;1.60;;;;;;;13.08;100.00;100176.99;108229;1251;70155;-58
2024/04/13 01:54:14;;;;;;;1.40;1.30;;;;;;;13.05;100.00;100172.53;108428;1251;71998;-57
2024/04/13 01:56:42;;;;;;;1.70;1.50;;;;;;;13.08;100.00;100169.96;108475;1254;61359;-57
2024/04/13 01:59:09;;;;;;;3.50;1.60;;;;;;;13.11;100.00;100161.90;108439;1251;59689;-57
2024/04/13 02:01:37;;;;;;;2.90;1.60;;;;;;;13.13;100.00;100160.04;108418;1251;74422;-57
2024/04/13 02:04:05;;;;;;;2.20;1.70;;;;;;;13.13;100.00;100159.88;108514;1251;69364;-57
2024/04/13 02:06:32;;;;;;;12.50;2.00;;;;;;;13.14;100.00;100158.22;108481;1251;73448;-57
2024/04/13 02:09:00;;;;;;;;;;;;;;;13.17;100.00;100156.69;108374;1253;61470;-57
2024/04/13 02:11:28;;;;;;;8.10;1.50;;;;;;;13.15;100.00;100158.88;108489;1251;59571;-57
2024/04/13 02:13:55;;;;;;;3.60;1.50;;;;;;;13.17;100.00;100155.47;108275;1251;74481;-57
2024/04/13 02:16:24;;;;;;;2.40;1.70;;;;;;;13.16;100.00;100153.42;108503;1251;70289;-57
2024/04/13 02:18:52;;;;;;;2.80;1.70;;;;;;;13.13;100.00;100151.08;108225;1254;71426;-57
2024/04/13 02:21:20;;;;;;;1.80;1.70;;;;;;;13.13;100.00;100149.48;108515;1251;60479;-58
2024/04/13 02:23:48;;;;;;;2.90;1.70;;;;;;;13.07;100.00;100140.59;108545;1253;60834;-56
2024/04/13 02:26:15;;;;;;;4.50;2.70;;;;;;;13.13;100.00;100150.55;108233;1253;74556;-57
2024/04/13 02:28:43;;;;;;;2.80;1.70;;;;;;;13.10;100.00;100150.85;108487;1251;69110;-57
2024/04/13 02:31:11;;;;;;;3.80;1.70;;;;;;;13.13;100.00;100154.94;108403;1251;72839;-58
2024/04/13 02:33:39;;;;;;;1.90;1.70;;;;;;;13.11;100.00;100154.17;108442;1251;61362;-57
2024/04/13 02:36:07;;;;;;;1.70;1.60;;;;;;;13.10;100.00;100153.00;108294;1251;60734;-57
2024/04/13 02:38:34;;;;;;;1.90;1.80;;;;;;;13.09;100.00;100149.33;108464;1251;75786;-57
2024/04/13 02:41:03;;;;;;;5.60;2.10;;;;;;;13.21;100.00;100152.64;108403;1252;69822;-57
2024/04/13 02:43:31;;;;;;;1.70;1.60;;;;;;;13.14;100.00;100152.77;108477;1251;72652;-57
2024/04/13 02:46:04;;;;;;;;;;;;;;;13.12;100.00;100148.48;108401;1254;60514;-57
2024/04/13 02:48:31;;;;;;;3.00;2.00;;;;;;;13.09;100.00;100148.10;108314;1251;59377;-56
2024/04/13 02:50:59;;;;;;;2.40;1.80;;;;;;;13.05;100.00;100148.09;108544;1251;73900;-57
2024/04/13 02:53:26;;;;;;;6.10;2.00;;;;;;;13.04;100.00;100144.05;108460;1251;70026;-57
2024/04/13 02:55:54;;;;;;;2.10;1.50;;;;;;;13.18;100.00;100142.06;108540;1251;71712;-56
2024/04/13 02:58:22;;;;;;;3.60;1.70;;;;;;;13.12;100.00;100143.02;108404;1253;61472;-54
2024/04/13 03:00:53;;;;;;;3.40;1.80;;;;;;;13.09;100.00;100141.20;108418;1254;59800;-54
2024/04/13 03:03:20;;;;;;;3.20;2.00;;;;;;;13.04;100.00;100138.80;108434;1252;75342;-56
2024/04/13 03:06:07;;;;;;;3.50;1.70;;;;;;;13.02;100.00;100145.41;108442;1253;69548;-57
2024/04/13 03:08:35;;;;;;;1.80;1.60;;;;;;;12.97;100.00;100144.21;108389;1252;72468;-57
2024/04/13 03:11:03;;;;;;;3.90;2.00;;;;;;;12.97;100.00;100147.05;108523;1251;60818;-56
2024/04/13 03:13:30;;;;;;;2.20;1.90;;;;;;;12.99;100.00;100140.79;108263;1251;59643;-57
2024/04/13 03:15:59;;;;;;;2.40;1.80;;;;;;;12.98;100.00;100143.13;108527;1251;74458;-57
2024/04/13 03:18:26;;;;;;;3.80;1.80;;;;;;;12.98;100.00;100139.98;108465;1253;69160;-57
2024/04/13 03:20:55;;;;;;;5.80;2.10;;;;;;;12.99;100.00;100139.91;108439;1251;72904;-57
2024/04/13 03:23:23;;;;;;;2.60;2.00;;;;;;;12.99;100.00;100137.64;108449;1253;61431;-56
2024/04/13 03:25:50;;;;;;;2.40;1.90;;;;;;;12.97;100.00;100141.23;108401;1251;60657;-56
2024/04/13 03:28:25;;;;;;;3.00;1.60;;;;;;;12.93;100.00;100136.30;108437;1251;75241;-56
2024/04/13 03:30:52;;;;;;;7.20;2.20;;;;;;;12.90;100.00;100142.61;108519;1253;69155;-57
2024/04/13 03:33:20;;;;;;;3.90;1.80;;;;;;;12.87;100.00;100140.98;108245;1251;72407;-57
2024/04/13 03:35:48;;;;;;;4.00;1.60;;;;;;;12.81;100.00;100142.82;108503;1252;61452;-57
2024/04/13 03:38:16;;;;;;;3.90;1.70;;;;;;;12.78;100.00;100149.63;108507;1251;59699;-57
2024/04/13 03:40:46;;;;;;;;;;;;;;;12.74;100.00;100148.58;108428;1251;73466;-56
2024/04/13 03:43:14;;;;;;;3.40;1.80;;;;;;;12.71;100.00;100146.44;108523;1251;69011;-56
2024/04/13 03:45:42;;;;;;;2.50;2.00;;;;;;;12.68;100.00;100140.22;108428;1251;72603;-57
2024/04/13 03:48:10;;;;;;;4.40;1.70;;;;;;;12.66;100.00;100135.89;108279;1253;62486;-57
2024/04/13 03:50:39;;;;;;;3.50;2.10;;;;;;;12.64;100.00;100135.45;108479;1252;60096;-57
2024/04/13 03:53:07;;;;;;;2.40;2.00;;;;;;;12.63;100.00;100137.60;108563;1251;74466;-57
2024/04/13 03:55:34;;;;;;;3.10;2.00;;;;;;;12.62;100.00;100137.13;108441;1253;69228;-56
2024/04/13 03:58:01;;;;;;;3.70;2.20;;;;;;;12.63;100.00;100134.95;108420;1251;72343;-55
2024/04/13 04:00:31;;;;;;;3.00;2.50;;;;;;;12.61;100.00;100141.58;108363;1253;60447;-57
2024/04/13 04:02:58;;;;;;;4.20;2.10;;;;;;;12.74;100.00;100144.71;108447;1251;60972;-56
2024/04/13 04:05:27;;;;;;;4.20;2.40;;;;;;;12.68;100.00;100145.67;108523;1251;74699;-57
2024/04/13 04:07:55;;;;;;;2.70;2.20;;;;;;;12.49;100.00;100147.19;108442;1252;68463;-56
2024/04/13 04:10:22;;;;;;;2.70;2.50;;;;;;;12.44;100.00;100150.39;108534;1252;72973;-57
2024/04/13 04:12:50;;;;;;;4.80;2.70;;;;;;;12.41;100.00;100149.84;108462;1253;61382;-57
2024/04/13 04:15:17;;;;;;;4.10;2.90;;;;;;;12.40;100.00;100156.55;108479;1251;60130;-57
2024/04/13 04:17:45;;;;;;;5.20;3.00;;;;;;;12.40;100.00;100157.92;108506;1251;73415;-57
2024/04/13 04:20:13;;;;;;;4.20;2.60;;;;;;;12.43;100.00;100157.30;108468;1253;69068;-57
2024/04/13 04:22:40;;;;;;;;;;;;;;;12.45;100.00;100153.31;108263;1251;72862;-58
2024/04/13 04:25:08;;;;;;;3.10;2.20;;;;;;;12.46;100.00;100154.15;108548;1251;61645;-55
2024/04/13 04:27:35;;;;;;;4.40;2.80;;;;;;;12.49;100.00;100154.58;108501;1251;59637;-53
2024/04/13 04:30:03;;;;;;;;;;;;;;;12.51;100.00;100152.04;108471;1253;74465;-56
2024/04/13 04:32:31;;;;;;;4.30;3.00;;;;;;;12.54;100.00;100150.85;108468;1252;68300;-56
2024/04/13 04:34:58;;;;;;;2.90;2.50;;;;;;;12.58;100.00;100146.62;108268;1251;74705;-57
2024/04/13 04:40:09;;;;;;;3.30;2.90;;;;;;;12.51;100.00;100151.14;103609;1288;601521;-56
2024/04/13 04:42:37;;;;;;;4.50;2.70;;;;;;;12.83;100.00;100150.45;105676;1266;61496;-55
2024/04/13 04:45:08;;;;;;;4.80;2.80;;;;;;;12.98;100.00;100152.64;105557;1266;60675;-56
2024/04/13 04:47:36;;;;;;;3.90;2.90;;;;;;;13.04;100.00;100150.79;105837;1264;73160;-56
2024/04/13 04:50:03;;;;;;;;;;;;;;;13.21;100.00;100152.64;106635;1264;69641;-57
2024/04/13 04:52:32;;;;;;;5.90;2.40;;;;;;;13.22;100.00;100154.00;106312;1256;571602;-61
2024/04/13 04:55:01;;;;;;;5.00;2.80;;;;;;;13.31;100.00;100147.79;107187;1257;61411;-56
2024/04/13 04:57:30;;;;;;;5.90;2.30;;;;;;;13.40;100.00;100146.54;107520;1254;59691;-56
2024/04/13 04:59:57;;;;;;;;;;;;;;;13.49;100.00;100143.83;107345;1254;73555;-57
2024/04/13 05:02:26;;;;;;;4.00;2.50;;;;;;;13.63;100.00;100144.38;107277;1253;71890;-57
2024/04/13 05:04:54;;;;;;;3.70;2.20;;;;;;;13.76;100.00;100140.77;107381;1254;73509;-56
2024/04/13 05:07:21;;;;;;;3.10;2.20;;;;;;;13.91;100.00;100137.93;107699;1253;61236;-56
2024/04/13 05:09:49;;;;;;;3.90;2.30;;;;;;;14.02;100.00;100136.51;107635;1259;60460;-56
2024/04/13 05:12:17;;;;;;;2.90;2.00;;;;;;;14.16;100.00;100136.53;106318;1260;75717;-55
2024/04/13 05:14:44;;;;;;;4.80;2.40;;;;;;;14.28;100.00;100134.58;106346;1255;69810;-56
2024/04/13 05:17:13;;;;;;;3.00;2.00;;;;;;;14.39;100.00;100128.35;106575;1254;71250;-56
2024/04/13 05:19:40;;;;;;;2.50;2.00;;;;;;;14.59;100.00;100128.20;106701;1258;60431;-56
2024/04/13 05:22:08;;;;;;;;;;;;;;;14.71;100.00;100124.27;105794;1260;60534;-55
2024/04/13 05:24:37;;;;;;;2.50;1.80;;;;;;;14.83;100.00;100125.58;106299;1256;74798;-56
2024/04/13 05:27:07;;;;;;;2.20;1.90;;;;;;;14.95;100.00;100118.77;107051;1258;70754;-55
2024/04/13 05:29:35;;;;;;;2.00;1.70;;;;;;;15.03;100.00;100112.73;106070;1254;72385;-56
2024/04/13 05:32:04;;;;;;;2.00;1.60;;;;;;;15.12;100.00;100110.45;105744;1261;62408;-56
2024/04/13 05:34:32;;;;;;;4.90;1.40;;;;;;;15.24;100.00;100109.97;105768;1253;60970;-55
2024/04/13 05:36:59;;;;;;;2.80;1.90;;;;;;;15.34;100.00;100111.02;106147;1255;73600;-55
2024/04/13 05:39:28;;;;;;;4.20;1.80;;;;;;;15.39;100.00;100108.44;106531;1253;72305;-56
2024/04/13 05:41:56;;;;;;;2.30;1.60;;;;;;;15.46;100.00;100108.76;106019;1253;74311;-55
2024/04/13 05:44:24;;;;;;;2.30;1.60;;;;;;;15.50;100.00;100107.27;105889;1257;61561;-61
2024/04/13 05:46:51;;;;;;;2.80;1.70;;;;;;;15.50;100.00;100103.78;107987;1254;60178;-60
2024/04/13 05:49:20;;;;;;;4.40;1.70;;;;;;;15.63;100.00;100102.68;107965;1254;73686;-61
2024/04/13 05:51:48;;;;;;;2.00;1.60;;;;;;;15.81;100.00;100100.06;107975;1258;68339;-59
2024/04/13 05:54:16;;;;;;;5.50;2.20;;;;;;;15.85;100.00;100099.89;107995;1256;72451;-57
2024/04/13 05:56:44;;;;;;;4.60;1.70;;;;;;;15.92;100.00;100099.67;107809;1254;62085;-60
2024/04/13 05:59:11;;;;;;;4.90;1.80;;;;;;;16.00;100.00;100099.33;108187;1254;59172;-61
2024/04/13 06:04:35;;;;;;;1.80;1.60;;;;;;;16.22;100.00;100096.16;102998;1291;601746;-59
2024/04/13 06:07:02;;;;;;;4.40;1.70;;;;;;;16.24;99.41;100097.43;105043;1265;59769;-58
2024/04/13 06:09:30;;;;;;;2.60;1.50;;;;;;;16.29;97.38;100096.10;104605;1267;59858;-56
2024/04/13 06:11:57;;;;;;;1.70;1.30;;;;;;;16.36;98.04;100096.55;104844;1267;71751;-56
2024/04/13 06:14:25;;;;;;;;;;;;;;;16.42;95.54;100091.25;105125;1271;69615;-57
2024/04/13 06:16:52;;;;;;;2.30;1.30;;;;;;;16.46;93.18;100089.59;105258;1266;74435;-57
2024/04/13 06:19:20;;;;;;;4.10;1.20;;;;;;;16.48;90.42;100087.31;104872;1263;744910;-56
2024/04/13 06:21:47;;;;;;;3.20;1.50;;;;;;;16.51;86.06;100086.10;105292;1263;59798;-56
2024/04/13 06:24:15;;;;;;;2.00;1.30;;;;;;;16.53;81.73;100083.48;105077;1264;73652;-56
2024/04/13 06:26:43;;;;;;;1.70;1.10;;;;;;;16.58;82.88;100081.06;105347;1264;72120;-56
2024/04/13 06:29:11;;;;;;;3.00;1.40;;;;;;;16.60;80.31;100081.66;105417;1264;71118;-57
2024/04/13 06:31:38;;;;;;;3.40;1.30;;;;;;;16.65;77.13;100084.36;106028;1263;60216;-56
2024/04/13 06:34:07;;;;;;;;;;;;;;;16.66;74.39;100090.14;105094;1269;60570;-56
2024/04/13 06:36:36;;;;;;;4.60;1.10;;;;;;;16.57;76.10;100088.56;105616;1267;73673;-56
2024/04/13 06:39:06;;;;;;;1.40;1.20;;;;;;;16.57;76.40;100086.95;105394;1258;69132;-56
2024/04/13 06:41:33;;;;;;;2.90;1.40;;;;;;;16.63;75.77;100082.22;105548;1257;74153;-56
2024/04/13 06:44:03;;;;;;;2.40;1.30;;;;;;;16.68;74.27;100075.14;105930;1257;60344;-56
2024/04/13 06:46:30;;;;;;;2.80;1.30;;;;;;;16.78;72.25;100072.80;106740;1256;60969;-56
2024/04/13 06:48:58;;;;;;;2.50;1.10;;;;;;;16.92;73.30;100068.78;106971;1256;74064;-55
2024/04/13 06:51:26;;;;;;;4.90;1.30;;;;;;;17.06;68.91;100070.70;105871;1257;69460;-55
2024/04/13 06:53:54;;;;;;;2.70;1.10;;;;;;;17.11;64.92;100063.09;106004;1256;72719;-55
2024/04/13 06:56:21;;;;;;;1.90;1.20;;;;;;;17.16;64.14;100064.39;105955;1254;60381;-55
2024/04/13 06:58:49;;;;;;;1.80;1.00;;;;;;;17.43;62.87;100061.66;106327;1254;61877;-55
2024/04/13 07:01:16;;;;;;;2.90;1.10;;;;;;;17.36;64.13;100062.09;105910;1251;73634;-54
2024/04/13 07:03:44;;;;;;;2.90;1.30;;;;;;;17.42;60.06;100058.11;105775;1252;68511;-55
2024/04/13 07:06:12;;;;;;;5.90;1.10;;;;;;;17.47;59.53;100059.60;105691;1254;72439;-54
2024/04/13 07:08:42;;;;;;;;;;;;;;;17.48;59.04;100058.11;106474;1254;60480;-55
2024/04/13 07:11:11;;;;;;;4.40;1.20;;;;;;;17.54;59.44;100053.84;106537;1251;62010;-55
2024/04/13 07:13:40;;;;;;;2.40;1.10;;;;;;;17.57;57.91;100052.39;105907;1251;77308;-55
2024/04/13 07:16:08;;;;;;;2.40;1.40;;;;;;;17.60;56.66;100049.70;105505;1252;69498;-56
2024/04/13 07:18:35;;;;;;;5.50;1.30;;;;;;;17.66;56.46;100055.37;105549;1254;72461;-56
2024/04/13 07:21:03;;;;;;;2.70;1.30;;;;;;;17.75;56.12;100055.13;106874;1254;59914;-56
2024/04/13 07:23:31;;;;;;;4.50;1.30;;;;;;;17.86;55.53;100051.73;106172;1253;60434;-56
2024/04/13 07:26:01;;;;;;;1.50;1.00;;;;;;;18.01;54.94;100046.36;106143;1253;72713;-56
2024/04/13 07:28:30;;;;;;;6.20;1.30;;;;;;;18.12;54.10;100043.26;105891;1252;69825;-56
2024/04/13 07:30:58;;;;;;;1.80;1.10;;;;;;;18.20;53.70;100040.76;105525;1253;72193;-56
2024/04/13 07:33:26;;;;;;;;;;;;;;;18.23;53.42;100037.90;106328;1252;60553;-56
2024/04/13 07:35:54;;;;;;;8.10;1.50;;;;;;;18.22;53.44;100037.80;106358;1252;60450;-56
2024/04/13 07:38:21;;;;;;;2.40;1.00;;;;;;;18.19;53.17;100034.85;105886;1257;72671;-56
2024/04/13 07:40:49;;;;;;;3.40;1.40;;;;;;;18.21;53.58;100030.24;105888;1254;71872;-56
2024/04/13 07:43:16;;;;;;;6.60;1.20;;;;;;;18.22;53.50;100028.73;106096;1254;72486;-57
2024/04/13 07:45:45;;;;;;;3.50;1.20;;;;;;;18.27;54.16;100028.77;106591;1252;60399;-56
2024/04/13 07:48:13;;;;;;;2.90;1.20;;;;;;;18.36;53.82;100027.29;106391;1252;60415;-57
2024/04/13 07:50:40;;;;;;;;;;;;;;;18.43;52.58;100024.66;106108;1252;74107;-56
2024/04/13 07:53:08;;;;;;;5.20;1.50;;;;;;;18.49;52.50;100021.36;106405;1253;70085;-55
2024/04/13 07:55:36;;;;;;;1.90;1.10;;;;;;;18.54;52.52;100024.77;106651;1253;71713;-55
2024/04/13 07:58:03;;;;;;;;;;;;;;;18.52;51.44;100024.03;106059;1253;60526;-56
2024/04/13 08:00:31;;;;;;;4.50;1.30;;;;;;;18.48;52.22;100018.30;106363;1253;60655;-55
2024/04/13 08:02:58;;;;;;;3.50;1.20;;;;;;;18.42;52.58;100016.55;107025;1252;73737;-55
2024/04/13 08:05:26;;;;;;;4.40;1.50;;;;;;;18.43;52.22;100014.51;106136;1253;69633;-55
2024/04/13 08:07:53;;;;;;;3.10;1.20;;;;;;;18.37;53.00;100024.57;106066;1253;72495;-56
2024/04/13 08:10:21;;;;;;;1.20;0.90;;;;;;;18.23;52.53;100020.50;106372;1254;60417;-55
2024/04/13 08:12:49;;;;;;;3.00;1.40;;;;;;;18.11;53.15;100018.51;106071;1253;62812;-56
2024/04/13 08:15:17;;;;;;;2.20;1.20;;;;;;;18.08;53.89;100019.73;106751;1253;74075;-55
2024/04/13 08:17:45;;;;;;;;;;;;;;;18.08;54.22;100021.33;105787;1253;69547;-55
2024/04/13 08:20:13;;;;;;;2.80;1.80;;;;;;;18.12;53.94;100021.11;106151;1253;71462;-57
2024/04/13 08:22:44;;;;;;;2.60;1.20;;;;;;;18.16;53.45;100015.66;106255;1253;60569;-55
2024/04/13 08:25:11;;;;;;;2.90;1.40;;;;;;;18.27;53.22;100012.98;106585;1254;59446;-56
2024/04/13 08:27:39;;;;;;;1.50;1.30;;;;;;;18.34;52.76;100006.67;106534;1252;75535;-56
2024/04/13 08:30:07;;;;;;;2.90;0.90;;;;;;;18.39;51.59;100003.13;106363;1254;68539;-60
2024/04/13 08:32:34;;;;;;;2.00;1.20;;;;;;;18.41;51.99;100000.15;106447;1254;71687;-56
2024/04/13 08:35:07;;;;;;;2.70;1.50;;;;;;;18.46;51.35;100002.96;105818;1253;61821;-55
2024/04/13 08:37:34;;;;;;;6.20;1.20;;;;;;;18.52;50.53;99996.21;106593;1252;62751;-55
2024/04/13 08:40:02;;;;;;;2.00;1.10;;;;;;;18.59;51.67;99994.08;106429;1254;77779;-56
2024/04/13 08:42:34;;;;;;;;;;;;;;;18.71;50.59;99990.94;106231;1253;71887;-56
2024/04/13 08:45:02;;;;;;;2.30;1.20;;;;;;;18.73;50.60;99992.39;106046;1254;75672;-55
2024/04/13 08:47:29;;;;;;;;;;;;;;;18.79;50.47;99987.86;105895;1252;62548;-55
2024/04/13 08:49:58;;;;;;;3.10;1.40;;;;;;;18.87;50.93;99985.75;106265;1253;60542;-55
2024/04/13 08:52:26;;;;;;;2.50;1.30;;;;;;;18.90;50.29;99986.96;106185;1253;76254;-55
2024/04/13 08:54:53;;;;;;;;;;;;;;;18.85;50.87;99982.65;105629;1254;70663;-55
2024/04/13 08:57:25;;;;;;;1.30;1.10;;;;;;;18.89;50.90;99981.16;105775;1254;75168;-56
2024/04/13 08:59:53;;;;;;;7.20;1.40;;;;;;;18.93;51.14;99977.82;105767;1253;60751;-55
2024/04/13 09:02:23;;;;;;;4.80;1.40;;;;;;;19.05;50.96;99977.86;105336;1253;64303;-55
2024/04/13 09:04:52;;;;;;;1.90;1.20;;;;;;;19.06;50.78;99972.44;105420;1253;73974;-58
2024/04/13 09:07:20;;;;;;;4.80;1.40;;;;;;;19.13;51.08;99976.94;105462;1252;71793;-57
2024/04/13 09:09:53;;;;;;;2.50;1.20;;;;;;;19.18;50.42;99979.20;105130;1252;74203;-55
2024/04/13 09:12:21;;;;;;;3.70;1.30;;;;;;;19.22;50.40;99979.10;105316;1253;63509;-55
2024/04/13 09:14:48;;;;;;;4.10;1.80;;;;;;;19.06;50.09;99961.08;105432;1252;62756;-55
2024/04/13 09:17:16;;;;;;;2.60;1.10;;;;;;;19.04;50.75;99972.05;105186;1253;75786;-55
2024/04/13 09:19:44;;;;;;;;;;;;;;;19.07;51.43;99967.80;106187;1253;72011;-56
2024/04/13 09:22:11;;;;;;;3.70;1.80;;;;;;;19.16;51.24;99968.38;105250;1251;75680;-55
2024/04/13 09:24:42;;;;;;;6.70;1.40;;;;;;;19.19;51.23;99959.43;105195;1253;60515;-55
2024/04/13 09:27:17;;;;;;;2.30;1.50;;;;;;;19.23;51.42;99961.42;105379;1267;63259;-55
2024/04/13 09:29:45;;;;;;;4.00;1.50;;;;;;;19.28;50.92;99963.73;105839;1252;77547;-55
2024/04/13 09:32:23;;;;;;;1.90;1.20;;;;;;;19.27;50.95;99957.42;105813;1252;71717;-55
2024/04/13 09:34:51;;;;;;;1.60;1.20;;;;;;;19.31;51.46;99945.42;106522;1252;76169;-56
2024/04/13 09:37:20;;;;;;;5.60;1.50;;;;;;;19.38;51.92;99941.69;105083;1252;63459;-55
2024/04/13 09:39:48;;;;;;;3.50;1.70;;;;;;;19.47;51.68;99937.13;105522;1252;64042;-55
2024/04/13 09:42:17;;;;;;;3.30;1.50;;;;;;;19.56;51.11;99931.60;105498;1254;76216;-55
2024/04/13 09:44:45;;;;;;;4.00;1.70;;;;;;;19.69;51.00;99924.08;105497;1257;73621;-55
2024/04/13 09:47:12;;;;;;;1.60;1.40;;;;;;;19.75;49.20;99915.41;105485;1252;75037;-55
2024/04/13 09:49:40;;;;;;;4.80;1.40;;;;;;;19.76;48.18;99910.92;105440;1253;62563;-55
2024/04/13 09:52:08;;;;;;;;;;;;;;;19.67;48.02;99902.91;105713;1253;61657;-55
2024/04/13 09:54:35;;;;;;;6.60;1.10;;;;;;;19.59;48.23;99892.09;106004;1252;77456;-55
2024/04/13 09:57:03;;;;;;;3.30;1.90;;;;;;;19.60;49.15;99894.52;105926;1255;70505;-55
2024/04/13 09:59:31;;;;;;;2.50;1.50;;;;;;;19.71;48.78;99885.01;105384;1252;76326;-55
2024/04/13 10:01:59;;;;;;;6.40;1.30;;;;;;;19.88;49.67;99876.90;105454;1252;63470;-55
2024/04/13 10:04:26;;;;;;;3.90;1.50;;;;;;;20.10;48.38;99870.17;105228;1252;63610;-55
2024/04/13 10:06:54;;;;;;;1.50;1.10;;;;;;;20.28;47.73;99868.76;105948;1252;76537;-55
2024/04/13 10:09:24;;;;;;;4.00;1.60;;;;;;;20.35;46.51;99879.58;105226;1253;71971;-54
2024/04/13 10:11:52;;;;;;;3.50;2.00;;;;;;;20.21;46.48;99882.00;105741;1253;74286;-54
2024/04/13 10:14:20;;;;;;;;;;;;;;;20.09;47.09;99882.61;105838;1252;62323;-55
2024/04/13 10:16:48;;;;;;;4.80;1.60;;;;;;;20.00;47.68;99881.33;105738;1254;62101;-55
2024/04/13 10:19:17;;;;;;;3.30;1.60;;;;;;;19.96;47.56;99880.94;105536;1252;78617;-55
2024/04/13 10:22:04;;;;;;;5.10;2.60;;;;;;;19.93;47.79;99880.25;106051;1252;71826;-59
2024/04/13 10:24:46;;;;;;;3.90;1.80;;;;;;;19.97;47.84;99867.61;105691;1252;73682;-57
2024/04/13 10:27:21;;;;;;;5.60;1.60;;;;;;;20.01;48.25;99867.84;105424;1252;62276;-54
2024/04/13 10:29:50;;;;;;;3.90;1.50;;;;;;;20.04;47.94;99863.04;105748;1254;63412;-54
2024/04/13 10:32:22;;;;;;;1.50;1.40;;;;;;;20.11;47.93;99864.76;105711;1252;75824;-57
2024/04/13 10:34:51;;;;;;;3.50;1.70;;;;;;;20.14;48.16;99864.15;105756;1252;73518;-55
2024/04/13 10:37:38;;;;;;;1.70;1.60;;;;;;;20.17;48.28;99865.02;105452;1256;76586;-54
2024/04/13 10:40:07;;;;;;;1.90;1.70;;;;;;;20.26;48.37;99857.36;105399;1254;62185;-54
2024/04/13 10:42:41;;;;;;;3.20;1.70;;;;;;;20.30;48.74;99851.54;105547;1252;63375;-55
2024/04/13 10:45:16;;;;;;;1.90;1.50;;;;;;;20.39;48.30;99848.53;106614;1253;75444;-54
2024/04/13 10:47:45;;;;;;;1.50;1.40;;;;;;;20.34;48.05;99848.53;105524;1253;73859;-54
2024/04/13 10:50:14;;;;;;;2.90;1.60;;;;;;;20.38;48.11;99837.21;105037;1253;74644;-54
2024/04/13 10:52:42;;;;;;;1.90;1.50;;;;;;;20.33;48.44;99829.09;104591;1257;62787;-54
2024/04/13 10:55:13;;;;;;;3.00;2.20;;;;;;;20.41;48.86;99834.98;105072;1252;62341;-54
2024/04/13 10:57:41;;;;;;;3.30;1.40;;;;;;;20.47;48.41;99830.09;104780;1257;78462;-55
2024/04/13 11:00:09;;;;;;;1.30;1.20;;;;;;;20.50;48.27;99829.25;105321;1252;73196;-55
2024/04/13 11:02:38;;;;;;;1.80;1.30;;;;;;;20.57;48.74;99827.80;105060;1259;74661;-55
2024/04/13 11:05:06;;;;;;;3.60;1.60;;;;;;;20.67;48.23;99825.33;104700;1253;63366;-55
2024/04/13 11:07:34;;;;;;;3.70;1.20;;;;;;;20.64;48.72;99827.63;104562;1270;63885;-55
2024/04/13 11:10:03;;;;;;;2.70;1.40;;;;;;;20.63;48.77;99823.98;105182;1253;77248;-55
2024/04/13 11:12:30;;;;;;;3.10;1.70;;;;;;;20.58;48.91;99824.31;105889;1251;71444;-56
2024/04/13 11:14:58;;;;;;;2.40;1.60;;;;;;;20.54;48.03;99821.45;105119;1252;74589;-55
2024/04/13 11:17:26;;;;;;;3.60;1.80;;;;;;;20.44;47.85;99813.16;104363;1257;61950;-56
2024/04/13 11:19:53;;;;;;;4.60;1.60;;;;;;;20.35;48.52;99804.64;104937;1253;61782;-55
2024/04/13 11:22:21;;;;;;;1.60;1.30;;;;;;;20.39;49.20;99811.11;104726;1257;76489;-55
2024/04/13 11:24:49;;;;;;;7.20;1.70;;;;;;;20.41;49.53;99809.67;105145;1253;72674;-59
2024/04/13 11:27:18;;;;;;;5.20;1.60;;;;;;;20.41;49.43;99809.34;104681;1257;75120;-57
2024/04/13 11:29:45;;;;;;;4.30;1.70;;;;;;;20.49;49.71;99802.14;104729;1252;64007;-56